Time;durP1;ratioP1;P1;durP2;ratioP2;P2;SDS_P1;SDS_P2;PMS_P1;PMS_P2;Temp;Humidity;BMP_temperature;BMP_pressure;BME280_temperature;BME280_humidity;BME280_pressure;Samples;Min_cycle;Max_cycle;Signal;HPM_P1;HPM_P2
2022/12/26 00:00:15;;;;;;;6.90;3.57;;;;;;;8.53;100.00;100938.94;5054466;28;20347;-92
2022/12/26 00:02:40;;;;;;;6.97;3.87;;;;;;;8.53;100.00;100941.53;5054041;28;20174;-92
2022/12/26 00:05:06;;;;;;;8.93;4.73;;;;;;;8.53;100.00;100936.38;5054825;28;20021;-92
2022/12/26 00:07:31;;;;;;;8.67;4.23;;;;;;;8.54;100.00;100948.44;5054600;28;20098;-93
2022/12/26 00:09:57;;;;;;;9.93;4.95;;;;;;;8.51;100.00;100936.34;5053888;28;20031;-92
2022/12/26 00:12:22;;;;;;;9.60;4.63;;;;;;;8.52;100.00;100938.06;5054577;28;20029;-92
2022/12/26 00:14:47;;;;;;;8.97;4.73;;;;;;;8.52;100.00;100940.66;5054776;28;20029;-92
2022/12/26 00:17:13;;;;;;;15.38;7.10;;;;;;;8.52;100.00;100940.66;5054199;28;20087;-92
2022/12/26 00:19:38;;;;;;;13.87;6.43;;;;;;;8.52;100.00;100950.16;5053904;28;20029;-92
2022/12/26 00:22:03;;;;;;;11.37;5.40;;;;;;;8.52;100.00;100951.00;5053891;28;20039;-92
2022/12/26 00:24:29;;;;;;;11.57;5.50;;;;;;;8.52;100.00;100957.94;5054442;28;20033;-93
2022/12/26 00:26:54;;;;;;;11.27;5.53;;;;;;;8.54;100.00;100971.72;5054139;28;20103;-92
2022/12/26 00:29:21;;;;;;;14.43;6.43;;;;;;;8.54;100.00;100969.13;5053538;28;20123;-92
2022/12/26 00:31:48;;;;;;;13.35;5.97;;;;;;;8.54;100.00;100976.88;5054179;28;20473;-92
2022/12/26 00:34:14;;;;;;;15.18;7.10;;;;;;;8.54;100.00;100979.47;5054064;28;20029;-91
2022/12/26 00:36:39;;;;;;;16.77;7.80;;;;;;;8.54;100.00;100984.66;5053911;28;20124;-92
2022/12/26 00:39:04;;;;;;;15.70;7.37;;;;;;;8.55;100.00;100983.78;5054073;28;20066;-92
2022/12/26 00:41:30;;;;;;;15.43;7.13;;;;;;;8.55;100.00;100986.38;5054113;28;20488;-91
2022/12/26 00:43:56;;;;;;;14.60;6.93;;;;;;;8.55;100.00;100970.84;5054206;28;20023;-92
2022/12/26 00:46:21;;;;;;;15.35;7.05;;;;;;;8.54;100.00;100975.16;5053771;28;20025;-92
2022/12/26 00:48:47;;;;;;;18.17;8.70;;;;;;;8.54;100.00;100979.47;5054292;28;20044;-92
2022/12/26 00:51:13;;;;;;;17.07;8.00;;;;;;;8.54;100.00;100977.72;5053851;28;20063;-92
2022/12/26 00:53:38;;;;;;;18.08;8.65;;;;;;;8.54;100.00;100977.72;5037848;28;20089;-92
2022/12/26 00:56:10;;;;;;;18.03;9.10;;;;;;;8.53;100.00;100988.94;5033755;28;20113;-92
2022/12/26 00:58:36;;;;;;;20.80;11.10;;;;;;;8.50;100.00;100997.59;5033834;28;20108;-92
2022/12/26 01:01:12;;;;;;;20.17;10.10;;;;;;;8.54;100.00;100992.41;5034029;28;20021;-92
2022/12/26 01:03:38;;;;;;;21.23;10.88;;;;;;;8.52;100.00;100997.56;5033849;28;20035;-92
2022/12/26 01:06:04;;;;;;;20.73;11.10;;;;;;;8.52;100.00;100991.56;5035989;28;20030;-92
2022/12/26 01:08:37;;;;;;;25.15;13.63;;;;;;;8.50;100.00;100976.03;5038348;28;20287;-92
2022/12/26 01:11:08;;;;;;;23.27;12.98;;;;;;;8.49;100.00;100975.16;5038916;28;20474;-92
2022/12/26 01:13:34;;;;;;;22.83;12.68;;;;;;;8.48;100.00;100986.38;5037212;28;20517;-93
2022/12/26 01:15:59;;;;;;;23.73;12.97;;;;;;;8.45;100.00;101004.47;5034031;28;20061;-92
2022/12/26 01:18:25;;;;;;;20.73;10.87;;;;;;;8.45;100.00;101001.88;5033104;28;20042;-92
2022/12/26 01:20:50;;;;;;;20.63;10.80;;;;;;;8.42;100.00;101006.19;5033580;28;20064;-91
2022/12/26 01:23:16;;;;;;;21.10;10.50;;;;;;;8.43;100.00;101010.50;5038316;28;20080;-91
2022/12/26 01:25:41;;;;;;;19.52;9.77;;;;;;;8.43;100.00;101007.94;5042477;28;20021;-92
2022/12/26 01:28:06;;;;;;;20.33;10.87;;;;;;;8.42;100.00;100993.28;5045807;28;20048;-92
2022/12/26 01:30:32;;;;;;;22.17;12.23;;;;;;;8.39;100.00;100988.13;5062649;28;20059;-92
2022/12/26 01:32:57;;;;;;;21.97;12.13;;;;;;;8.39;100.00;100995.91;5059840;28;20484;-92
2022/12/26 01:35:23;;;;;;;20.48;10.43;;;;;;;8.38;100.00;100999.34;5057002;28;20025;-92
2022/12/26 01:37:48;;;;;;;19.90;10.20;;;;;;;8.38;100.00;100999.34;5057551;28;20029;-92
2022/12/26 01:40:14;;;;;;;20.13;10.45;;;;;;;8.39;100.00;101001.06;5057233;28;20474;-92
2022/12/26 01:42:40;;;;;;;21.87;11.77;;;;;;;8.37;100.00;100997.63;5057633;28;20028;-92
2022/12/26 01:45:27;;;;;;;19.75;9.90;;;;;;;8.37;100.00;101007.97;5056664;28;20025;-92
2022/12/26 01:48:19;;;;;;;20.23;10.10;;;;;;;8.34;100.00;101007.09;5056777;28;20021;-92
2022/12/26 01:50:51;;;;;;;18.52;9.10;;;;;;;8.33;100.00;100996.78;5043687;28;20132;-92
2022/12/26 01:53:26;;;;;;;18.77;9.50;;;;;;;8.30;100.00;101001.94;5056754;28;20155;-92
2022/12/26 01:56:00;;;;;;;17.38;8.02;;;;;;;8.31;100.00;101006.25;5056983;28;20541;-92
2022/12/26 01:58:31;;;;;;;14.98;7.18;;;;;;;8.31;100.00;101004.50;5056506;28;20123;-92
2022/12/26 02:00:57;;;;;;;15.63;7.13;;;;;;;8.31;100.00;101001.94;5057084;28;20043;-93
2022/12/26 02:06:08;;;;;;;15.88;7.25;;;;;;;8.30;100.00;101007.97;5056486;28;20397;-92
2022/12/26 02:08:35;;;;;;;16.17;7.65;;;;;;;8.28;100.00;100995.91;5057179;28;20025;-92
2022/12/26 02:11:06;;;;;;;16.00;7.43;;;;;;;8.27;100.00;100997.66;5056760;28;20031;-92
2022/12/26 02:13:35;;;;;;;15.73;7.28;;;;;;;8.27;100.00;101010.59;5056660;28;20029;-92
2022/12/26 02:16:02;;;;;;;18.20;8.60;;;;;;;8.28;100.00;101008.84;5056574;28;20083;-92
2022/12/26 02:18:27;;;;;;;16.38;7.97;;;;;;;8.26;100.00;101008.88;5056561;28;20490;-92
2022/12/26 02:20:56;;;;;;;17.67;8.17;;;;;;;8.26;100.00;101011.44;5056773;28;20028;-92
2022/12/26 02:23:45;;;;;;;15.52;7.78;;;;;;;8.27;100.00;101017.47;5056292;28;20037;-92
2022/12/26 02:26:34;;;;;;;15.90;7.80;;;;;;;8.27;100.00;101014.88;5056457;28;20024;-92
2022/12/26 02:29:17;;;;;;;17.60;8.40;;;;;;;8.25;100.00;101014.00;5056807;28;20025;-92
2022/12/26 02:31:56;;;;;;;15.05;7.25;;;;;;;8.25;100.00;101017.47;5056483;28;20108;-92
2022/12/26 02:34:32;;;;;;;13.02;6.53;;;;;;;8.27;100.00;101008.00;5055204;28;20095;-92
2022/12/26 02:37:22;;;;;;;13.30;6.80;;;;;;;8.26;100.00;100995.94;5056162;28;20033;-91
2022/12/26 02:40:16;;;;;;;14.82;7.28;;;;;;;8.24;100.00;100994.19;5056486;28;20024;-92
2022/12/26 02:42:53;;;;;;;11.82;6.18;;;;;;;8.21;100.00;101010.59;5055806;28;20064;-92
2022/12/26 02:49:03;;;;;;;12.18;5.75;;;;;;;8.21;100.00;101017.50;5056062;28;20091;-93
2022/12/26 03:14:48;;;;;;;12.65;6.55;;;;;;;8.16;100.00;101009.75;5042340;28;20044;-92
2022/12/26 03:17:25;;;;;;;12.25;6.47;;;;;;;8.13;100.00;101017.50;5035393;28;20075;-92
2022/12/26 03:20:01;;;;;;;13.13;6.50;;;;;;;8.09;100.00;101028.72;5035852;28;20037;-92
2022/12/26 03:22:38;;;;;;;10.85;5.80;;;;;;;8.08;100.00;101034.75;5035652;28;20075;-92
2022/12/26 03:28:21;;;;;;;12.93;6.18;;;;;;;8.05;100.00;101014.94;4974746;28;20096;-92
2022/12/26 03:30:49;;;;;;;10.98;5.88;;;;;;;8.06;100.00;101008.03;5023313;28;20061;-92
2022/12/26 03:36:41;;;;;;;9.50;5.57;;;;;;;8.06;100.00;100993.41;5035298;28;20124;-91
2022/12/26 04:19:22;;;;;;;;;;;;;;;8.07;100.00;100997.69;5035869;28;20100;-92
2022/12/26 04:20:02;;;;;;;11.43;5.90;;;;;;;7.88;100.00;101061.47;5034581;28;20048;-92
2022/12/26 04:45:14;;;;;;;8.43;4.80;;;;;;;7.76;100.00;101031.34;5053827;28;20048;-92
2022/12/26 04:50:10;;;;;;;8.67;5.00;;;;;;;7.75;100.00;101028.75;5054192;28;20474;-91
2022/12/26 04:50:24;;;;;;;9.60;5.18;;;;;;;7.75;100.00;101031.34;5046552;28;20033;-92
2022/12/26 04:52:58;;;;;;;7.83;4.70;;;;;;;7.73;100.00;101021.84;5033616;28;20370;-91
2022/12/26 04:55:32;;;;;;;9.05;4.95;;;;;;;7.71;100.00;101023.56;5033915;28;20021;-92
2022/12/26 04:57:58;;;;;;;7.65;4.65;;;;;;;7.71;100.00;101012.41;5034246;28;20369;-92
2022/12/26 05:00:24;;;;;;;6.93;4.30;;;;;;;7.71;100.00;101014.97;5033737;28;20101;-92
2022/12/26 05:11:12;;;;;;;9.25;4.65;;;;;;;7.65;100.00;101020.16;5034096;28;20550;-92
2022/12/26 05:13:38;;;;;;;6.90;4.30;;;;;;;7.63;100.00;101017.56;5033508;28;20061;-91
2022/12/26 05:30:09;;;;;;;10.50;5.28;;;;;;;7.58;100.00;101037.38;5033752;28;20044;-91
2022/12/26 05:35:18;;;;;;;9.48;4.78;;;;;;;7.54;100.00;101033.91;5033591;28;20095;-92
2022/12/26 05:37:43;;;;;;;9.97;4.93;;;;;;;7.53;100.00;101024.47;5033065;28;20029;-91
2022/12/26 05:40:09;;;;;;;8.63;4.83;;;;;;;7.55;100.00;101025.31;5033624;28;20030;-92
2022/12/26 05:42:34;;;;;;;8.95;4.78;;;;;;;7.56;100.00;101021.88;5033470;28;20493;-92
2022/12/26 05:45:00;;;;;;;7.83;4.30;;;;;;;7.55;100.00;101019.28;5033145;28;20068;-92
2022/12/26 05:47:25;;;;;;;7.37;4.20;;;;;;;7.54;100.00;101012.41;5033340;28;20505;-92
2022/12/26 05:49:51;;;;;;;7.03;4.00;;;;;;;7.54;100.00;101008.09;5035463;28;20120;-92
2022/12/26 05:52:17;;;;;;;8.03;4.23;;;;;;;7.52;100.00;101007.25;5053471;28;20036;-92
2022/12/26 05:54:42;;;;;;;6.88;3.78;;;;;;;7.51;100.00;101000.34;5052922;28;20056;-91
2022/12/26 05:57:07;;;;;;;5.25;3.10;;;;;;;7.51;100.00;100991.72;5052684;28;20022;-92
2022/12/26 05:59:32;;;;;;;5.57;3.40;;;;;;;7.48;100.00;101000.34;5052995;28;20021;-92
2022/12/26 06:01:58;;;;;;;5.97;3.40;;;;;;;7.46;100.00;101006.38;5053078;28;20124;-92
2022/12/26 06:04:23;;;;;;;6.27;3.50;;;;;;;7.47;100.00;101008.97;5052665;28;20389;-91
2022/12/26 06:06:48;;;;;;;6.80;3.70;;;;;;;7.46;100.00;101017.56;5053311;28;20029;-92
2022/12/26 06:09:14;;;;;;;8.55;4.28;;;;;;;7.48;100.00;101020.16;5055566;28;20021;-91
2022/12/26 06:11:39;;;;;;;6.63;3.80;;;;;;;7.47;100.00;101019.28;5049462;28;20018;-92
2022/12/26 06:14:04;;;;;;;7.57;4.13;;;;;;;7.48;100.00;101026.19;5036653;28;20033;-91
2022/12/26 06:16:30;;;;;;;6.78;3.60;;;;;;;7.51;100.00;101030.47;5036981;28;20116;-91
2022/12/26 06:18:55;;;;;;;5.97;3.40;;;;;;;7.51;100.00;101044.25;5036354;28;20041;-91
2022/12/26 06:21:21;;;;;;;8.88;4.22;;;;;;;7.53;100.00;101034.81;5050419;28;20119;-91
2022/12/26 06:23:47;;;;;;;7.70;4.40;;;;;;;7.54;100.00;101046.81;5056420;28;20111;-92
2022/12/26 06:26:13;;;;;;;8.95;4.60;;;;;;;7.54;100.00;101043.41;5056543;28;20036;-91
2022/12/26 06:28:40;;;;;;;7.53;4.37;;;;;;;7.56;100.00;101039.94;5056795;28;20025;-91
2022/12/26 06:31:09;;;;;;;8.95;5.03;;;;;;;7.57;100.00;101046.84;5056439;28;20679;-91
2022/12/26 06:33:34;;;;;;;7.00;4.43;;;;;;;7.56;100.00;101050.28;5056446;28;20021;-91
2022/12/26 06:36:09;;;;;;;8.70;4.60;;;;;;;7.55;100.00;101053.72;5056110;28;20025;-92
2022/12/26 06:38:35;;;;;;;7.22;4.18;;;;;;;7.56;100.00;101055.44;5056041;28;20032;-91
2022/12/26 06:41:02;;;;;;;8.47;4.60;;;;;;;7.54;100.00;101057.16;5056233;28;20025;-91
2022/12/26 06:43:28;;;;;;;8.73;4.95;;;;;;;7.55;100.00;101071.78;5056359;28;20028;-91
2022/12/26 06:45:57;;;;;;;5.90;4.00;;;;;;;7.55;100.00;101065.78;5056052;28;20155;-91
2022/12/26 06:48:23;;;;;;;7.75;4.70;;;;;;;7.52;100.00;101063.19;5055782;28;20420;-91
2022/12/26 06:50:49;;;;;;;7.18;4.20;;;;;;;7.51;100.00;101067.50;5056247;28;20112;-91
2022/12/26 06:53:15;;;;;;;7.20;4.13;;;;;;;7.50;100.00;101058.03;5056029;28;20423;-91
2022/12/26 06:55:40;;;;;;;6.90;4.20;;;;;;;7.49;100.00;101063.19;5055905;28;20025;-91
2022/12/26 06:58:05;;;;;;;5.33;3.77;;;;;;;7.46;100.00;101053.72;5055586;28;20028;-91
2022/12/26 07:00:30;;;;;;;8.70;4.63;;;;;;;7.43;100.00;101045.97;5055551;28;20359;-91
2022/12/26 07:02:56;;;;;;;8.00;4.20;;;;;;;7.42;100.00;101054.59;5055465;28;20029;-92
2022/12/26 07:05:21;;;;;;;5.30;3.70;;;;;;;7.40;100.00;101061.47;5055946;28;20474;-91
2022/12/26 07:07:51;;;;;;;5.82;3.92;;;;;;;7.39;100.00;101054.56;5055386;28;20039;-91
2022/12/26 07:10:17;;;;;;;5.00;3.80;;;;;;;7.37;100.00;101049.44;5055588;28;20025;-91
2022/12/26 07:12:43;;;;;;;6.00;3.65;;;;;;;7.37;100.00;101052.00;5056040;28;20052;-91
2022/12/26 07:15:09;;;;;;;6.17;3.80;;;;;;;7.36;100.00;101062.31;5055148;28;20123;-90
2022/12/26 07:17:35;;;;;;;4.33;3.30;;;;;;;7.32;100.00;101061.44;5055295;28;20037;-92
2022/12/26 07:20:00;;;;;;;6.13;3.72;;;;;;;7.31;100.00;101053.72;5055706;28;20029;-90
2022/12/26 07:22:27;;;;;;;5.80;3.50;;;;;;;7.30;100.00;101058.00;5055285;28;20530;-93
2022/12/26 07:24:53;;;;;;;6.82;3.63;;;;;;;7.30;100.00;101062.31;5055190;28;20021;-89
2022/12/26 07:27:18;;;;;;;5.00;3.60;;;;;;;7.28;100.00;101066.59;5055311;28;20221;-87
2022/12/26 07:29:43;;;;;;;5.75;3.58;;;;;;;7.26;100.00;101059.72;5053820;28;20052;-89
2022/12/26 07:32:29;;;;;;;7.93;3.73;;;;;;;7.26;100.00;101057.13;5055176;28;20107;-88
2022/12/26 07:34:54;;;;;;;5.93;3.57;;;;;;;7.26;100.00;101072.63;5054396;28;20048;-89
2022/12/26 07:37:22;;;;;;;4.80;3.45;;;;;;;7.25;100.00;101070.06;5054412;28;20029;-89
2022/12/26 07:39:48;;;;;;;5.57;3.53;;;;;;;7.25;100.00;101077.81;5054657;28;20017;-89
2022/12/26 07:42:13;;;;;;;4.80;3.43;;;;;;;7.25;100.00;101081.22;5054755;28;20052;-88
2022/12/26 07:44:38;;;;;;;5.47;3.50;;;;;;;7.28;100.00;101079.53;5053742;28;20481;-89
2022/12/26 07:47:04;;;;;;;5.70;3.50;;;;;;;7.26;100.00;101088.13;5053898;28;20067;-89
2022/12/26 07:49:38;;;;;;;4.00;3.40;;;;;;;7.28;100.00;101089.84;5054561;28;20397;-88
2022/12/26 07:52:03;;;;;;;5.53;3.40;;;;;;;7.25;100.00;101075.22;5054460;28;20057;-88
2022/12/26 07:54:35;;;;;;;5.47;3.37;;;;;;;7.27;100.00;101081.22;5054844;28;20048;-89
2022/12/26 07:57:00;;;;;;;6.85;3.50;;;;;;;7.24;100.00;101086.41;5050659;28;20066;-92
2022/12/26 07:59:26;;;;;;;4.77;3.47;;;;;;;7.23;100.00;101082.94;5034929;28;20026;-94
2022/12/26 08:01:51;;;;;;;5.50;3.50;;;;;;;7.23;100.00;101098.44;5035061;28;20071;-92
2022/12/26 08:04:16;;;;;;;5.73;3.50;;;;;;;7.24;100.00;101095.00;5034066;28;20113;-94
2022/12/26 08:06:41;;;;;;;4.72;3.50;;;;;;;7.23;100.00;101089.84;5034269;28;20536;-95
2022/12/26 08:09:11;;;;;;;4.43;3.30;;;;;;;7.26;100.00;101097.59;5034777;28;20424;-91
2022/12/26 08:11:37;;;;;;;4.72;3.10;;;;;;;7.25;100.00;101095.88;5034974;28;20096;-92
2022/12/26 08:14:02;;;;;;;4.27;3.13;;;;;;;7.26;100.00;101107.94;5034024;28;20105;-92
2022/12/26 08:16:27;;;;;;;5.47;3.10;;;;;;;7.24;100.00;101100.16;5034637;28;20108;-92
2022/12/26 08:18:53;;;;;;;4.93;3.30;;;;;;;7.28;100.00;101105.34;5033821;28;20041;-93
2022/12/26 08:21:18;;;;;;;4.03;3.23;;;;;;;7.28;100.00;101095.00;5034926;28;20033;-93
2022/12/26 08:23:45;;;;;;;6.05;3.38;;;;;;;7.31;100.00;101105.34;5034019;28;20104;-94
2022/12/26 08:26:12;;;;;;;4.40;3.45;;;;;;;7.36;100.00;101095.88;5033308;28;20026;-93
2022/12/26 08:28:37;;;;;;;;;;;;;;;7.38;100.00;101102.75;5035040;28;20485;-93
2022/12/26 08:31:07;;;;;;;6.67;3.70;;;;;;;7.42;100.00;101101.06;5033943;28;19913;-94
2022/12/26 08:33:32;;;;;;;4.55;3.42;;;;;;;7.50;100.00;101103.66;5033568;28;20017;-92
2022/12/26 08:36:02;;;;;;;5.47;3.30;;;;;;;7.53;100.00;101090.75;5041015;28;20029;-93
2022/12/26 08:38:28;;;;;;;6.55;3.55;;;;;;;7.60;100.00;101105.38;5053933;28;20544;-92
2022/12/26 08:40:57;;;;;;;5.03;3.10;;;;;;;7.67;100.00;101106.25;5053328;28;20021;-92
2022/12/26 08:43:23;;;;;;;4.95;3.40;;;;;;;7.72;100.00;101118.31;5054095;28;20432;-93
2022/12/26 08:46:16;;;;;;;4.10;3.55;;;;;;;7.85;100.00;101115.75;5053695;28;20192;-93
2022/12/26 08:48:42;;;;;;;6.60;3.50;;;;;;;7.87;100.00;101120.06;5016469;28;20033;-94
2022/12/26 08:51:11;;;;;;;5.63;3.50;;;;;;;7.91;100.00;101110.59;5049351;28;20075;-94
2022/12/26 08:53:37;;;;;;;5.68;3.33;;;;;;;7.95;100.00;101114.88;5063879;28;20348;-92
2022/12/26 08:56:05;;;;;;;4.47;3.50;;;;;;;7.98;100.00;101117.47;5068505;28;20020;-93
2022/12/26 08:58:36;;;;;;;6.15;3.30;;;;;;;8.09;100.00;101125.22;5069640;28;20021;-92
2022/12/26 09:01:14;;;;;;;6.60;3.60;;;;;;;8.16;100.00;101134.69;5067750;28;20036;-93
2022/12/26 09:03:40;;;;;;;4.55;3.45;;;;;;;8.21;100.00;101133.84;5053725;28;20508;-93
2022/12/26 09:06:07;;;;;;;4.88;3.40;;;;;;;8.22;100.00;101132.97;5053885;28;20044;-94
2022/12/26 09:08:33;;;;;;;4.37;3.20;;;;;;;8.28;100.00;101133.81;5053337;28;20055;-93
2022/12/26 09:11:18;;;;;;;6.45;3.10;;;;;;;8.39;100.00;101144.16;5062856;28;20760;-92
2022/12/26 09:13:44;;;;;;;5.35;3.25;;;;;;;8.37;100.00;101140.72;5067094;28;20062;-90
2022/12/26 09:16:12;;;;;;;4.60;3.10;;;;;;;8.42;100.00;101139.00;5069747;28;20033;-92
2022/12/26 09:18:38;;;;;;;4.47;3.08;;;;;;;8.43;100.00;101137.25;5069031;28;20079;-96
2022/12/26 09:21:06;;;;;;;4.47;3.05;;;;;;;8.44;100.00;101145.03;5051583;28;20033;-92
2022/12/26 09:23:31;;;;;;;3.72;2.70;;;;;;;8.45;100.00;101151.91;5036918;28;20029;-90
2022/12/26 09:26:08;;;;;;;5.13;2.70;;;;;;;8.48;100.00;101159.69;5033728;28;20029;-93
2022/12/26 09:28:34;;;;;;;5.70;2.75;;;;;;;8.53;100.00;101161.41;5033485;28;20018;-90
2022/12/26 09:31:04;;;;;;;3.10;2.30;;;;;;;8.51;100.00;101148.47;5029543;28;20046;-89
2022/12/26 09:33:37;;;;;;;4.40;2.65;;;;;;;8.55;100.00;101162.28;5038104;28;20021;-90
2022/12/26 09:36:08;;;;;;;4.63;2.45;;;;;;;8.55;100.00;101167.47;5033252;28;20151;-90
2022/12/26 09:38:35;;;;;;;6.80;2.60;;;;;;;8.56;100.00;101171.75;5027201;28;20103;-89
2022/12/26 09:41:09;;;;;;;5.28;2.40;;;;;;;8.59;100.00;101184.69;5037314;28;20029;-88
2022/12/26 09:43:56;;;;;;;3.60;2.30;;;;;;;8.68;100.00;101182.06;5057376;28;20040;-89
2022/12/26 09:46:31;;;;;;;3.55;2.20;;;;;;;8.68;100.00;101187.25;5058467;28;20223;-90
2022/12/26 09:49:27;;;;;;;3.58;2.00;;;;;;;8.71;100.00;101200.19;5062471;28;20025;-90
2022/12/26 09:51:55;;;;;;;2.10;1.90;;;;;;;8.71;100.00;101191.56;5051630;28;20071;-90
2022/12/26 09:54:39;;;;;;;6.25;2.30;;;;;;;8.74;100.00;101196.72;5055802;28;20029;-90
2022/12/26 09:57:10;;;;;;;3.15;2.20;;;;;;;8.72;100.00;101196.72;5068542;28;20028;-89
2022/12/26 09:59:49;;;;;;;5.03;2.10;;;;;;;8.73;100.00;101200.16;5077224;28;20378;-89
2022/12/26 10:02:20;;;;;;;4.20;2.20;;;;;;;8.73;100.00;101214.00;5076642;28;20083;-90
2022/12/26 10:04:46;;;;;;;2.35;1.90;;;;;;;8.72;100.00;101206.25;5062270;28;20116;-90
2022/12/26 10:07:36;;;;;;;2.00;1.80;;;;;;;8.72;100.00;101217.44;5050788;28;20065;-89
2022/12/26 10:10:12;;;;;;;2.10;1.90;;;;;;;8.69;100.00;101207.09;5054568;28;20039;-90
2022/12/26 10:13:15;;;;;;;5.57;2.20;;;;;;;8.69;100.00;101209.66;5064786;28;20025;-89
2022/12/26 10:15:49;;;;;;;1.90;1.80;;;;;;;8.68;100.00;101205.34;5044872;28;20029;-90
2022/12/26 10:18:29;;;;;;;3.70;2.20;;;;;;;8.74;100.00;101220.91;5046127;28;20076;-92
2022/12/26 10:21:09;;;;;;;4.03;2.40;;;;;;;8.76;100.00;101224.34;5036831;28;20037;-91
2022/12/26 10:23:41;;;;;;;2.28;2.08;;;;;;;8.76;100.00;101224.34;5044324;28;20055;-90
2022/12/26 10:26:24;;;;;;;5.50;2.25;;;;;;;8.76;100.00;101226.94;5056435;28;20021;-91
2022/12/26 10:29:11;;;;;;;4.45;2.20;;;;;;;8.76;100.00;101223.47;5056729;28;20029;-90
2022/12/26 10:31:57;;;;;;;5.57;2.38;;;;;;;8.75;100.00;101238.16;5055998;28;20020;-92
2022/12/26 10:34:27;;;;;;;;;;;;;;;8.75;100.00;101242.44;5059187;28;20033;-89
2022/12/26 10:37:19;;;;;;;4.55;2.60;;;;;;;8.70;100.00;101290.78;5051713;28;19960;-90
2022/12/26 10:40:27;;;;;;;5.00;2.70;;;;;;;8.55;100.00;101286.47;5051749;28;20029;-92
2022/12/26 10:42:54;;;;;;;5.38;2.75;;;;;;;8.35;100.00;101293.31;5009999;28;20037;-94
2022/12/26 10:45:32;;;;;;;3.88;2.30;;;;;;;8.22;100.00;101294.16;5063142;28;20108;-91
2022/12/26 10:47:57;;;;;;;4.13;2.08;;;;;;;8.06;100.00;101293.25;5039937;28;20041;-93
2022/12/26 10:50:29;;;;;;;2.20;1.80;;;;;;;7.97;100.00;101288.06;5055729;28;20093;-91
2022/12/26 10:52:57;;;;;;;1.98;1.77;;;;;;;7.89;100.00;101291.47;5059152;28;20021;-91
2022/12/26 10:55:28;;;;;;;4.25;1.70;;;;;;;7.84;100.00;101298.38;5055685;28;20428;-92
2022/12/26 10:57:54;;;;;;;5.25;1.80;;;;;;;7.79;100.00;101310.38;5056214;28;20028;-94
2022/12/26 11:00:24;;;;;;;5.07;1.87;;;;;;;7.76;100.00;101305.22;5055769;28;20024;-95
2022/12/26 11:03:11;;;;;;;2.95;1.65;;;;;;;7.75;100.00;101320.72;5055843;28;20287;-91
2022/12/26 11:05:43;;;;;;;4.35;1.80;;;;;;;7.71;100.00;101327.59;5036139;28;20032;-93
2022/12/26 11:08:18;;;;;;;2.67;1.80;;;;;;;7.69;100.00;101329.31;5035930;28;20026;-91
2022/12/26 11:11:02;;;;;;;4.00;1.90;;;;;;;7.70;100.00;101328.44;5035558;28;20056;-92
2022/12/26 11:13:31;;;;;;;5.65;2.03;;;;;;;7.63;100.00;101337.03;5036079;28;20489;-92
2022/12/26 11:15:56;;;;;;;10.23;2.20;;;;;;;7.56;100.00;101338.72;5039358;28;20021;-93
2022/12/26 11:18:26;;;;;;;6.97;2.13;;;;;;;7.49;100.00;101352.44;5055919;28;20533;-96
2022/12/26 11:20:52;;;;;;;8.48;2.10;;;;;;;7.44;100.00;101351.56;5055136;28;20033;-91
2022/12/26 11:23:22;;;;;;;11.20;2.37;;;;;;;7.38;100.00;101371.31;5055725;28;20024;-95
2022/12/26 11:25:54;;;;;;;9.15;2.17;;;;;;;7.36;100.00;101359.25;5055334;28;20128;-91
2022/12/26 11:28:26;;;;;;;6.95;2.25;;;;;;;7.30;100.00;101361.81;5055101;28;20742;-91
2022/12/26 11:30:52;;;;;;;10.73;2.40;;;;;;;7.25;100.00;101356.63;5055547;28;20025;-94
2022/12/26 11:33:30;;;;;;;7.03;2.13;;;;;;;7.24;100.00;101355.75;5055222;28;20040;-93
2022/12/26 11:36:09;;;;;;;6.18;2.00;;;;;;;7.26;100.00;101358.34;5055193;28;20377;-92
2022/12/26 11:38:46;;;;;;;8.35;2.60;;;;;;;7.23;100.00;101356.59;5055295;28;20025;-93
2022/12/26 11:41:30;;;;;;;7.32;2.50;;;;;;;7.22;100.00;101356.59;5055283;28;20036;-93
2022/12/26 11:44:13;;;;;;;8.00;2.30;;;;;;;7.18;100.00;101367.75;5055063;28;20111;-91
2022/12/26 11:46:48;;;;;;;5.68;2.20;;;;;;;7.15;100.00;101368.59;5050830;28;20024;-92
2022/12/26 11:49:33;;;;;;;6.38;2.20;;;;;;;7.17;100.00;101378.91;5054709;28;20033;-93
2022/12/26 11:52:22;;;;;;;6.18;2.05;;;;;;;7.21;100.00;101381.53;5055066;28;20025;-93
2022/12/26 11:54:49;;;;;;;3.75;1.90;;;;;;;7.32;100.00;101391.09;5040357;28;20021;-92
2022/12/26 11:57:26;;;;;;;4.55;1.90;;;;;;;7.43;100.00;101394.59;5053389;28;20025;-90
2022/12/26 11:59:52;;;;;;;3.72;1.67;;;;;;;7.52;100.00;101391.22;5055594;28;20377;-92
2022/12/26 12:02:25;;;;;;;4.33;1.93;;;;;;;7.57;100.00;101392.13;5051451;28;20025;-91
2022/12/26 12:04:53;;;;;;;7.22;2.13;;;;;;;7.61;99.80;101406.75;5034603;28;20056;-92
2022/12/26 12:07:51;;;;;;;6.57;2.30;;;;;;;7.57;97.07;101403.28;5033907;28;20141;-91
2022/12/26 12:10:52;;;;;;;4.07;2.00;;;;;;;7.54;99.98;101402.41;5034491;28;20057;-91
2022/12/26 12:13:17;;;;;;;5.50;2.22;;;;;;;7.50;99.16;101403.25;5034452;28;20017;-91
2022/12/26 12:15:42;;;;;;;5.47;2.07;;;;;;;7.46;99.29;101404.09;5043569;28;20024;-90
2022/12/26 12:18:21;;;;;;;5.28;2.03;;;;;;;7.40;97.97;101416.09;5054618;28;20044;-91
2022/12/26 12:21:09;;;;;;;4.07;1.90;;;;;;;7.37;98.48;101420.38;5054473;28;20031;-93
2022/12/26 12:23:44;;;;;;;6.28;2.10;;;;;;;7.29;96.04;101419.47;5054768;28;20039;-92
2022/12/26 12:26:16;;;;;;;6.38;2.20;;;;;;;7.22;96.69;101409.06;5054071;28;20120;-90
2022/12/26 12:29:04;;;;;;;3.72;1.80;;;;;;;7.17;96.50;101407.31;5054423;28;20438;-89
2022/12/26 12:31:50;;;;;;;5.18;1.80;;;;;;;7.05;92.92;101403.78;5053288;28;20032;-89
2022/12/26 12:34:21;;;;;;;3.85;1.70;;;;;;;7.02;93.99;101414.09;5052417;28;20033;-89
2022/12/26 12:36:57;;;;;;;3.80;1.52;;;;;;;6.98;94.61;101421.81;5054268;28;20036;-89
2022/12/26 12:39:31;;;;;;;3.22;1.52;;;;;;;6.94;94.65;101423.47;5052744;28;20424;-89
2022/12/26 12:42:10;;;;;;;4.75;1.70;;;;;;;6.88;94.04;101428.59;5053864;28;20123;-89
2022/12/26 12:44:50;;;;;;;4.55;1.50;;;;;;;6.84;95.46;101425.13;5040853;28;20386;-89
2022/12/26 12:47:56;;;;;;;2.72;1.30;;;;;;;6.83;95.25;101431.13;5033206;28;20025;-90
2022/12/26 12:50:35;;;;;;;2.95;1.33;;;;;;;6.75;94.29;101441.38;4990001;28;20037;-89
2022/12/26 12:53:28;;;;;;;3.90;1.63;;;;;;;6.74;94.36;101446.53;5033155;28;20819;-88
2022/12/26 12:56:13;;;;;;;3.53;1.40;;;;;;;6.75;94.63;101448.25;5033839;28;20091;-89
2022/12/26 12:58:45;;;;;;;2.70;1.30;;;;;;;6.74;94.13;101456.84;5033911;28;20061;-89
2022/12/26 13:01:17;;;;;;;4.30;1.50;;;;;;;6.72;94.52;101461.97;5032605;28;20065;-89
2022/12/26 13:03:52;;;;;;;3.22;1.63;;;;;;;6.61;91.89;101455.81;5033714;28;20087;-89
2022/12/26 13:06:25;;;;;;;4.30;1.83;;;;;;;6.54;92.21;101462.63;5049288;28;20493;-89
2022/12/26 13:09:19;;;;;;;3.95;1.65;;;;;;;6.44;90.08;101453.06;5052928;28;20378;-89
2022/12/26 13:11:54;;;;;;;3.42;1.50;;;;;;;6.42;91.65;101452.16;5044028;28;20033;-88
2022/12/26 13:14:24;;;;;;;4.22;1.90;;;;;;;6.39;91.88;101449.56;5051280;28;20035;-89
2022/12/26 13:17:12;;;;;;;4.15;2.08;;;;;;;6.36;91.49;101449.53;5053939;28;20107;-89
2022/12/26 13:19:45;;;;;;;3.30;1.70;;;;;;;6.39;93.28;101453.00;5056802;28;20055;-89
2022/12/26 13:22:19;;;;;;;1.60;1.50;;;;;;;6.41;93.30;101455.63;5056318;28;20437;-88
2022/12/26 13:24:52;;;;;;;2.53;2.03;;;;;;;6.40;92.71;101453.88;5057500;28;20025;-89
2022/12/26 13:27:29;;;;;;;5.97;1.80;;;;;;;6.38;91.01;101456.41;5057222;28;20021;-89
2022/12/26 13:29:54;;;;;;;;;;;;;;;6.37;91.43;101461.56;5057171;28;20025;-89
2022/12/26 13:32:29;;;;;;;3.30;1.97;;;;;;;6.40;93.81;101459.88;5057233;28;19912;-89
2022/12/26 13:34:56;;;;;;;3.25;1.63;;;;;;;6.43;94.00;101469.38;5056787;28;20029;-88
2022/12/26 13:37:31;;;;;;;2.83;1.80;;;;;;;6.42;91.49;101477.94;5056698;28;20021;-89
2022/12/26 13:39:58;;;;;;;1.83;1.60;;;;;;;6.41;92.56;101481.41;5057225;28;20067;-89
2022/12/26 13:45:34;;;;;;;4.05;1.75;;;;;;;6.41;94.24;101486.56;5054081;28;20082;-88
2022/12/26 13:47:59;;;;;;;3.78;1.90;;;;;;;6.37;91.27;101485.63;5057094;28;20074;-89